sensor_id;sensor_type;location;lat;lon;timestamp;pressure;altitude;pressure_sealevel;temperature;humidity
61345;BME280;47216;42.656;23.232;2023-02-18T00:01:34;94602.22;;;5.74;51.57
61345;BME280;47216;42.656;23.232;2023-02-18T00:04:05;94601.81;;;5.90;50.44
61345;BME280;47216;42.656;23.232;2023-02-18T00:06:34;94595.28;;;6.15;49.67
61345;BME280;47216;42.656;23.232;2023-02-18T00:09:04;94590.66;;;6.23;49.54
61345;BME280;47216;42.656;23.232;2023-02-18T00:11:34;94579.34;;;6.24;50.24
61345;BME280;47216;42.656;23.232;2023-02-18T00:14:05;94589.28;;;6.14;50.47
61345;BME280;47216;42.656;23.232;2023-02-18T00:16:35;94590.72;;;6.10;50.85
61345;BME280;47216;42.656;23.232;2023-02-18T00:19:07;94581.34;;;6.09;50.54
61345;BME280;47216;42.656;23.232;2023-02-18T00:21:36;94566.41;;;5.98;50.91
61345;BME280;47216;42.656;23.232;2023-02-18T00:24:05;94569.56;;;5.86;51.16
61345;BME280;47216;42.656;23.232;2023-02-18T00:26:34;94566.78;;;5.81;51.57
61345;BME280;47216;42.656;23.232;2023-02-18T00:29:02;94555.03;;;5.85;51.06
61345;BME280;47216;42.656;23.232;2023-02-18T00:31:33;94555.03;;;5.85;51.03
61345;BME280;47216;42.656;23.232;2023-02-18T00:34:02;94559.22;;;5.93;50.44
61345;BME280;47216;42.656;23.232;2023-02-18T00:36:32;94550.84;;;5.91;51.06
61345;BME280;47216;42.656;23.232;2023-02-18T00:39:00;94552.47;;;5.79;50.87
61345;BME280;47216;42.656;23.232;2023-02-18T00:41:31;94544.09;;;5.83;50.57
61345;BME280;47216;42.656;23.232;2023-02-18T00:43:58;94542.50;;;5.82;50.81
61345;BME280;47216;42.656;23.232;2023-02-18T00:46:27;94553.66;;;5.69;50.87
61345;BME280;47216;42.656;23.232;2023-02-18T00:48:55;94548.66;;;5.75;51.12
61345;BME280;47216;42.656;23.232;2023-02-18T00:51:25;94553.25;;;5.79;51.10
61345;BME280;47216;42.656;23.232;2023-02-18T00:53:55;94544.50;;;5.67;51.79
61345;BME280;47216;42.656;23.232;2023-02-18T00:56:23;94549.25;;;5.63;51.92
61345;BME280;47216;42.656;23.232;2023-02-18T00:58:51;94544.69;;;5.59;52.36
61345;BME280;47216;42.656;23.232;2023-02-18T01:01:19;94544.50;;;5.54;51.85
61345;BME280;47216;42.656;23.232;2023-02-18T01:03:49;94531.75;;;5.59;51.83
61345;BME280;47216;42.656;23.232;2023-02-18T01:06:17;94536.75;;;5.60;52.10
61345;BME280;47216;42.656;23.232;2023-02-18T01:08:48;94532.53;;;5.66;51.65
61345;BME280;47216;42.656;23.232;2023-02-18T01:11:20;94544.88;;;5.90;51.59
61345;BME280;47216;42.656;23.232;2023-02-18T01:13:51;94530.16;;;5.98;51.76
61345;BME280;47216;42.656;23.232;2023-02-18T01:16:20;94536.94;;;5.99;51.45
61345;BME280;47216;42.656;23.232;2023-02-18T01:18:49;94528.97;;;6.07;51.31
61345;BME280;47216;42.656;23.232;2023-02-18T01:21:18;94523.19;;;5.98;51.17
61345;BME280;47216;42.656;23.232;2023-02-18T01:23:49;94521.81;;;5.82;50.26
61345;BME280;47216;42.656;23.232;2023-02-18T01:26:19;94519.78;;;6.11;49.94
61345;BME280;47216;42.656;23.232;2023-02-18T01:28:51;94507.81;;;6.17;50.00
61345;BME280;47216;42.656;23.232;2023-02-18T01:31:20;94516.16;;;6.25;49.63
61345;BME280;47216;42.656;23.232;2023-02-18T01:33:50;94506.97;;;6.36;49.48
61345;BME280;47216;42.656;23.232;2023-02-18T01:36:18;94518.88;;;6.57;48.77
61345;BME280;47216;42.656;23.232;2023-02-18T01:38:48;94521.03;;;6.60;49.83
61345;BME280;47216;42.656;23.232;2023-02-18T01:41:16;94535.63;;;6.55;50.01
61345;BME280;47216;42.656;23.232;2023-02-18T01:43:46;94531.41;;;6.53;49.91
61345;BME280;47216;42.656;23.232;2023-02-18T01:46:17;94530.44;;;6.48;50.30
61345;BME280;47216;42.656;23.232;2023-02-18T01:48:46;94536.63;;;6.47;50.19
61345;BME280;47216;42.656;23.232;2023-02-18T01:51:16;94534.22;;;6.52;49.99
61345;BME280;47216;42.656;23.232;2023-02-18T01:53:47;94535.63;;;6.48;50.01
61345;BME280;47216;42.656;23.232;2023-02-18T01:56:19;94545.81;;;6.43;50.32
61345;BME280;47216;42.656;23.232;2023-02-18T01:58:49;94544.44;;;6.40;50.77
61345;BME280;47216;42.656;23.232;2023-02-18T02:01:20;94547.22;;;6.39;50.66
61345;BME280;47216;42.656;23.232;2023-02-18T02:03:49;94553.97;;;6.40;50.92
61345;BME280;47216;42.656;23.232;2023-02-18T02:06:20;94562.16;;;6.37;50.89
61345;BME280;47216;42.656;23.232;2023-02-18T02:08:49;94563.97;;;6.29;50.80
61345;BME280;47216;42.656;23.232;2023-02-18T02:11:21;94554.03;;;6.26;51.12
61345;BME280;47216;42.656;23.232;2023-02-18T02:13:56;94553.63;;;6.16;51.56
61345;BME280;47216;42.656;23.232;2023-02-18T02:16:30;94549.28;;;5.97;51.04
61345;BME280;47216;42.656;23.232;2023-02-18T02:19:11;94545.69;;;5.84;51.96
61345;BME280;47216;42.656;23.232;2023-02-18T02:27:24;94525.38;;;5.61;52.90
61345;BME280;47216;42.656;23.232;2023-02-18T02:30:03;94533.75;;;5.57;53.11
61345;BME280;47216;42.656;23.232;2023-02-18T02:35:24;94517.84;;;5.20;52.91
61345;BME280;47216;42.656;23.232;2023-02-18T02:37:55;94513.84;;;5.37;52.00
61345;BME280;47216;42.656;23.232;2023-02-18T02:40:28;94515.44;;;5.58;51.16
61345;BME280;47216;42.656;23.232;2023-02-18T02:43:03;94507.09;;;5.76;50.49
61345;BME280;47216;42.656;23.232;2023-02-18T02:45:37;94506.47;;;5.87;49.98
61345;BME280;47216;42.656;23.232;2023-02-18T02:48:09;94511.44;;;5.96;49.83
61345;BME280;47216;42.656;23.232;2023-02-18T02:50:43;94503.06;;;6.07;49.75
61345;BME280;47216;42.656;23.232;2023-02-18T02:53:16;94502.06;;;6.15;49.01
61345;BME280;47216;42.656;23.232;2023-02-18T02:55:48;94489.09;;;6.21;48.92
61345;BME280;47216;42.656;23.232;2023-02-18T02:58:17;94507.03;;;6.23;48.80
61345;BME280;47216;42.656;23.232;2023-02-18T03:00:49;94507.44;;;6.20;48.85
61345;BME280;47216;42.656;23.232;2023-02-18T03:03:30;94516.16;;;6.25;48.57
61345;BME280;47216;42.656;23.232;2023-02-18T03:06:14;94517.97;;;6.31;48.68
61345;BME280;47216;42.656;23.232;2023-02-18T03:08:49;94525.31;;;6.35;48.30
61345;BME280;47216;42.656;23.232;2023-02-18T03:11:23;94523.88;;;6.45;47.73
61345;BME280;47216;42.656;23.232;2023-02-18T03:13:56;94530.00;;;6.64;48.40
61345;BME280;47216;42.656;23.232;2023-02-18T03:16:26;94539.16;;;6.67;48.98
61345;BME280;47216;42.656;23.232;2023-02-18T03:18:57;94548.13;;;6.64;49.17
61345;BME280;47216;42.656;23.232;2023-02-18T03:21:31;94546.34;;;6.58;49.92
61345;BME280;47216;42.656;23.232;2023-02-18T03:24:01;94545.19;;;6.54;49.84
61345;BME280;47216;42.656;23.232;2023-02-18T03:26:31;94553.59;;;6.43;50.40
61345;BME280;47216;42.656;23.232;2023-02-18T03:29:01;94549.81;;;6.39;50.12
61345;BME280;47216;42.656;23.232;2023-02-18T03:31:31;94548.03;;;6.32;50.54
61345;BME280;47216;42.656;23.232;2023-02-18T03:34:04;94551.03;;;6.29;50.53
61345;BME280;47216;42.656;23.232;2023-02-18T03:36:36;94558.25;;;6.01;51.53
61345;BME280;47216;42.656;23.232;2023-02-18T03:39:06;94565.22;;;5.74;51.81
61345;BME280;47216;42.656;23.232;2023-02-18T03:41:35;94570.53;;;5.32;52.60
61345;BME280;47216;42.656;23.232;2023-02-18T03:44:05;94566.69;;;5.08;52.20
61345;BME280;47216;42.656;23.232;2023-02-18T03:46:35;94571.47;;;5.04;52.13
61345;BME280;47216;42.656;23.232;2023-02-18T03:49:08;94565.94;;;5.21;52.39
61345;BME280;47216;42.656;23.232;2023-02-18T03:51:38;94569.34;;;5.28;51.27
61345;BME280;47216;42.656;23.232;2023-02-18T03:54:07;94582.88;;;5.37;51.39
61345;BME280;47216;42.656;23.232;2023-02-18T03:56:35;94583.28;;;5.47;51.87
61345;BME280;47216;42.656;23.232;2023-02-18T03:59:05;94585.88;;;5.54;51.87
61345;BME280;47216;42.656;23.232;2023-02-18T04:01:34;94582.31;;;5.68;51.58
61345;BME280;47216;42.656;23.232;2023-02-18T04:04:05;94576.94;;;5.76;51.88
61345;BME280;47216;42.656;23.232;2023-02-18T04:06:34;94573.56;;;5.76;51.53
61345;BME280;47216;42.656;23.232;2023-02-18T04:09:05;94571.97;;;5.81;51.47
61345;BME280;47216;42.656;23.232;2023-02-18T04:11:34;94565.22;;;5.80;51.85
61345;BME280;47216;42.656;23.232;2023-02-18T04:14:03;94561.63;;;5.81;51.93
61345;BME280;47216;42.656;23.232;2023-02-18T04:16:32;94564.81;;;5.83;51.65
61345;BME280;47216;42.656;23.232;2023-02-18T04:19:00;94557.03;;;5.77;51.92
61345;BME280;47216;42.656;23.232;2023-02-18T04:21:30;94564.00;;;5.76;51.41
61345;BME280;47216;42.656;23.232;2023-02-18T04:23:59;94554.81;;;5.40;51.34
61345;BME280;47216;42.656;23.232;2023-02-18T04:26:30;94555.22;;;5.31;52.05
61345;BME280;47216;42.656;23.232;2023-02-18T04:29:01;94542.09;;;5.25;52.20
61345;BME280;47216;42.656;23.232;2023-02-18T04:31:29;94534.91;;;5.21;52.15
61345;BME280;47216;42.656;23.232;2023-02-18T04:33:59;94532.94;;;5.23;51.80
61345;BME280;47216;42.656;23.232;2023-02-18T04:36:29;94532.72;;;5.31;51.54
61345;BME280;47216;42.656;23.232;2023-02-18T04:38:57;94533.53;;;5.25;51.19
61345;BME280;47216;42.656;23.232;2023-02-18T04:41:26;94531.56;;;5.27;51.73
61345;BME280;47216;42.656;23.232;2023-02-18T04:43:56;94536.91;;;5.19;51.43
61345;BME280;47216;42.656;23.232;2023-02-18T04:46:25;94546.84;;;5.09;51.33
61345;BME280;47216;42.656;23.232;2023-02-18T04:48:55;94556.34;;;5.08;51.29
61345;BME280;47216;42.656;23.232;2023-02-18T04:51:24;94546.41;;;5.05;51.48
61345;BME280;47216;42.656;23.232;2023-02-18T04:53:52;94544.06;;;5.17;51.72
61345;BME280;47216;42.656;23.232;2023-02-18T04:56:22;94545.84;;;5.10;51.13
61345;BME280;47216;42.656;23.232;2023-02-18T04:58:51;94540.06;;;5.08;51.54
61345;BME280;47216;42.656;23.232;2023-02-18T05:01:21;94541.66;;;5.09;51.85
61345;BME280;47216;42.656;23.232;2023-02-18T05:03:50;94547.44;;;5.11;51.56
61345;BME280;47216;42.656;23.232;2023-02-18T05:06:19;94567.94;;;5.19;51.15
61345;BME280;47216;42.656;23.232;2023-02-18T05:08:49;94564.56;;;5.25;50.83
61345;BME280;47216;42.656;23.232;2023-02-18T05:11:17;94575.13;;;5.43;49.94
61345;BME280;47216;42.656;23.232;2023-02-18T05:13:45;94578.31;;;5.59;49.42
61345;BME280;47216;42.656;23.232;2023-02-18T05:16:13;94585.13;;;5.73;50.12
61345;BME280;47216;42.656;23.232;2023-02-18T05:18:45;94586.28;;;5.77;50.99
61345;BME280;47216;42.656;23.232;2023-02-18T05:21:15;94576.16;;;5.82;51.78
61345;BME280;47216;42.656;23.232;2023-02-18T05:23:43;94569.19;;;5.89;51.18
61345;BME280;47216;42.656;23.232;2023-02-18T05:26:11;94558.41;;;5.93;51.54
61345;BME280;47216;42.656;23.232;2023-02-18T05:28:39;94552.88;;;5.96;51.55
61345;BME280;47216;42.656;23.232;2023-02-18T05:31:10;94556.47;;;5.95;51.55
61345;BME280;47216;42.656;23.232;2023-02-18T05:33:39;94545.09;;;5.96;51.58
61345;BME280;47216;42.656;23.232;2023-02-18T05:36:12;94548.25;;;5.91;51.57
61345;BME280;47216;42.656;23.232;2023-02-18T05:38:40;94536.13;;;5.92;51.72
61345;BME280;47216;42.656;23.232;2023-02-18T05:41:09;94543.31;;;5.63;50.38
61345;BME280;47216;42.656;23.232;2023-02-18T05:43:40;94546.47;;;5.52;49.34
61345;BME280;47216;42.656;23.232;2023-02-18T05:46:25;94550.06;;;5.90;47.82
61345;BME280;47216;42.656;23.232;2023-02-18T05:48:55;94555.00;;;6.25;46.92
61345;BME280;47216;42.656;23.232;2023-02-18T05:51:25;94558.19;;;6.41;45.99
61345;BME280;47216;42.656;23.232;2023-02-18T05:53:54;94555.31;;;6.62;45.34
61345;BME280;47216;42.656;23.232;2023-02-18T05:56:23;94556.31;;;6.61;46.42
61345;BME280;47216;42.656;23.232;2023-02-18T05:58:51;94560.16;;;6.45;46.72
61345;BME280;47216;42.656;23.232;2023-02-18T06:01:20;94566.34;;;6.38;47.11
61345;BME280;47216;42.656;23.232;2023-02-18T06:03:47;94575.91;;;6.37;47.60
61345;BME280;47216;42.656;23.232;2023-02-18T06:06:14;94575.47;;;6.47;46.71
61345;BME280;47216;42.656;23.232;2023-02-18T06:08:43;94582.63;;;6.51;46.10
61345;BME280;47216;42.656;23.232;2023-02-18T06:11:13;94565.84;;;6.67;46.05
61345;BME280;47216;42.656;23.232;2023-02-18T06:13:43;94563.22;;;6.81;46.65
61345;BME280;47216;42.656;23.232;2023-02-18T06:16:10;94565.16;;;6.92;45.82
61345;BME280;47216;42.656;23.232;2023-02-18T06:18:37;94564.03;;;7.20;47.80
61345;BME280;47216;42.656;23.232;2023-02-18T06:21:06;94561.75;;;7.30;47.74
61345;BME280;47216;42.656;23.232;2023-02-18T06:23:35;94560.38;;;7.27;47.98
61345;BME280;47216;42.656;23.232;2023-02-18T06:26:05;94556.69;;;7.17;47.22
61345;BME280;47216;42.656;23.232;2023-02-18T06:28:33;94552.09;;;7.19;45.55
61345;BME280;47216;42.656;23.232;2023-02-18T06:31:03;94553.88;;;7.11;45.34
61345;BME280;47216;42.656;23.232;2023-02-18T06:33:32;94548.03;;;7.23;44.34
61345;BME280;47216;42.656;23.232;2023-02-18T06:36:00;94552.47;;;7.15;45.61
61345;BME280;47216;42.656;23.232;2023-02-18T06:38:32;94551.66;;;7.22;44.52
61345;BME280;47216;42.656;23.232;2023-02-18T06:41:00;94550.44;;;7.24;45.10
61345;BME280;47216;42.656;23.232;2023-02-18T06:43:30;94560.38;;;7.27;44.49
61345;BME280;47216;42.656;23.232;2023-02-18T06:45:59;94551.16;;;7.38;44.32
61345;BME280;47216;42.656;23.232;2023-02-18T06:48:29;94555.19;;;7.27;45.31
61345;BME280;47216;42.656;23.232;2023-02-18T06:50:58;94549.94;;;7.41;46.76
61345;BME280;47216;42.656;23.232;2023-02-18T06:53:26;94558.25;;;7.49;44.63
61345;BME280;47216;42.656;23.232;2023-02-18T06:55:54;94565.81;;;7.51;43.58
61345;BME280;47216;42.656;23.232;2023-02-18T06:58:24;94557.63;;;7.54;44.61
61345;BME280;47216;42.656;23.232;2023-02-18T07:00:54;94581.97;;;7.53;44.75
61345;BME280;47216;42.656;23.232;2023-02-18T07:03:23;94552.81;;;7.57;44.79
61345;BME280;47216;42.656;23.232;2023-02-18T07:05:52;94564.00;;;7.58;44.71
61345;BME280;47216;42.656;23.232;2023-02-18T07:08:20;94562.81;;;7.54;45.23
61345;BME280;47216;42.656;23.232;2023-02-18T07:10:48;94563.44;;;7.49;44.54
61345;BME280;47216;42.656;23.232;2023-02-18T07:13:16;94560.28;;;7.47;45.16
61345;BME280;47216;42.656;23.232;2023-02-18T07:15:47;94549.06;;;7.53;45.97
61345;BME280;47216;42.656;23.232;2023-02-18T07:18:20;94534.19;;;7.67;44.04
61345;BME280;47216;42.656;23.232;2023-02-18T07:20:52;94548.06;;;7.79;43.89
61345;BME280;47216;42.656;23.232;2023-02-18T07:23:20;94531.41;;;7.87;42.96
61345;BME280;47216;42.656;23.232;2023-02-18T07:25:49;94535.56;;;7.95;42.82
61345;BME280;47216;42.656;23.232;2023-02-18T07:28:19;94527.69;;;8.02;43.38
61345;BME280;47216;42.656;23.232;2023-02-18T07:30:48;94536.22;;;8.09;42.31
61345;BME280;47216;42.656;23.232;2023-02-18T07:33:19;94524.16;;;8.14;42.60
61345;BME280;47216;42.656;23.232;2023-02-18T07:35:52;94523.53;;;8.19;42.98
61345;BME280;47216;42.656;23.232;2023-02-18T07:38:19;94533.66;;;8.27;41.35
61345;BME280;47216;42.656;23.232;2023-02-18T07:40:49;94538.31;;;8.44;41.32
61345;BME280;47216;42.656;23.232;2023-02-18T07:43:19;94553.16;;;8.55;41.21
61345;BME280;47216;42.656;23.232;2023-02-18T07:45:48;94551.84;;;8.64;41.64
61345;BME280;47216;42.656;23.232;2023-02-18T07:48:21;94557.47;;;8.79;41.12
61345;BME280;47216;42.656;23.232;2023-02-18T07:50:51;94562.75;;;8.91;40.05
61345;BME280;47216;42.656;23.232;2023-02-18T07:53:20;94563.28;;;9.12;40.50
61345;BME280;47216;42.656;23.232;2023-02-18T07:55:50;94573.31;;;9.27;42.35
61345;BME280;47216;42.656;23.232;2023-02-18T07:58:20;94564.56;;;9.21;43.13
61345;BME280;47216;42.656;23.232;2023-02-18T08:00:47;94555.53;;;9.23;44.32
61345;BME280;47216;42.656;23.232;2023-02-18T08:03:15;94549.31;;;9.24;45.29
61345;BME280;47216;42.656;23.232;2023-02-18T08:05:49;94555.75;;;9.22;44.91
61345;BME280;47216;42.656;23.232;2023-02-18T08:08:21;94553.25;;;9.15;45.20
61345;BME280;47216;42.656;23.232;2023-02-18T08:10:51;94547.19;;;9.03;46.14
61345;BME280;47216;42.656;23.232;2023-02-18T08:13:19;94560.63;;;9.00;45.58
61345;BME280;47216;42.656;23.232;2023-02-18T08:15:49;94557.25;;;8.99;46.19
61345;BME280;47216;42.656;23.232;2023-02-18T08:18:19;94556.00;;;9.02;46.27
61345;BME280;47216;42.656;23.232;2023-02-18T08:20:52;94561.78;;;9.04;45.49
61345;BME280;47216;42.656;23.232;2023-02-18T08:23:21;94554.00;;;9.04;41.06
61345;BME280;47216;42.656;23.232;2023-02-18T08:25:51;94545.91;;;9.24;41.07
61345;BME280;47216;42.656;23.232;2023-02-18T08:28:19;94532.63;;;9.44;39.57
61345;BME280;47216;42.656;23.232;2023-02-18T08:30:49;94539.31;;;9.63;38.61
61345;BME280;47216;42.656;23.232;2023-02-18T08:33:19;94529.28;;;9.79;38.41
61345;BME280;47216;42.656;23.232;2023-02-18T08:35:52;94525.53;;;9.86;38.72
61345;BME280;47216;42.656;23.232;2023-02-18T08:38:24;94523.88;;;9.92;38.23
61345;BME280;47216;42.656;23.232;2023-02-18T08:41:00;94517.28;;;10.01;38.43
61345;BME280;47216;42.656;23.232;2023-02-18T08:43:30;94527.50;;;10.15;39.03
61345;BME280;47216;42.656;23.232;2023-02-18T08:45:57;94520.78;;;10.19;37.97
61345;BME280;47216;42.656;23.232;2023-02-18T08:48:26;94509.59;;;10.30;37.54
61345;BME280;47216;42.656;23.232;2023-02-18T08:50:57;94520.69;;;10.37;37.57
61345;BME280;47216;42.656;23.232;2023-02-18T08:53:24;94535.41;;;10.43;37.33
61345;BME280;47216;42.656;23.232;2023-02-18T08:55:51;94532.47;;;10.51;37.59
61345;BME280;47216;42.656;23.232;2023-02-18T08:58:20;94528.38;;;10.56;37.60
61345;BME280;47216;42.656;23.232;2023-02-18T09:00:48;94547.53;;;10.61;37.63
61345;BME280;47216;42.656;23.232;2023-02-18T09:03:17;94546.06;;;10.65;37.49
61345;BME280;47216;42.656;23.232;2023-02-18T09:05:47;94537.28;;;10.71;37.28
61345;BME280;47216;42.656;23.232;2023-02-18T09:08:20;94545.22;;;10.77;37.17
61345;BME280;47216;42.656;23.232;2023-02-18T09:10:48;94556.78;;;10.81;36.80
61345;BME280;47216;42.656;23.232;2023-02-18T09:13:17;94566.91;;;10.77;36.89
61345;BME280;47216;42.656;23.232;2023-02-18T09:15:45;94550.78;;;10.80;37.23
61345;BME280;47216;42.656;23.232;2023-02-18T09:18:13;94540.22;;;10.87;37.25
61345;BME280;47216;42.656;23.232;2023-02-18T09:20:43;94531.69;;;10.91;37.68
61345;BME280;47216;42.656;23.232;2023-02-18T09:23:12;94531.34;;;10.88;37.74
61345;BME280;47216;42.656;23.232;2023-02-18T09:25:43;94536.81;;;10.86;37.42
61345;BME280;47216;42.656;23.232;2023-02-18T09:28:13;94535.16;;;10.97;37.34
61345;BME280;47216;42.656;23.232;2023-02-18T09:30:41;94531.16;;;11.06;37.16
61345;BME280;47216;42.656;23.232;2023-02-18T09:33:11;94519.59;;;11.14;37.33
61345;BME280;47216;42.656;23.232;2023-02-18T09:35:40;94506.47;;;11.26;37.05
61345;BME280;47216;42.656;23.232;2023-02-18T09:38:10;94509.59;;;11.40;37.13
61345;BME280;47216;42.656;23.232;2023-02-18T09:40:39;94505.84;;;11.52;36.48
61345;BME280;47216;42.656;23.232;2023-02-18T09:43:16;94503.34;;;11.74;34.68
61345;BME280;47216;42.656;23.232;2023-02-18T09:45:47;94506.03;;;11.96;33.98
61345;BME280;47216;42.656;23.232;2023-02-18T09:48:18;94504.44;;;12.12;34.12
61345;BME280;47216;42.656;23.232;2023-02-18T09:50:48;94507.28;;;12.28;33.96
61345;BME280;47216;42.656;23.232;2023-02-18T09:53:21;94507.50;;;12.43;34.10
61345;BME280;47216;42.656;23.232;2023-02-18T09:55:51;94500.53;;;12.54;34.18
61345;BME280;47216;42.656;23.232;2023-02-18T09:58:22;94503.47;;;12.57;33.56
61345;BME280;47216;42.656;23.232;2023-02-18T10:00:53;94491.34;;;12.51;32.68
61345;BME280;47216;42.656;23.232;2023-02-18T10:03:25;94499.63;;;12.43;33.19
61345;BME280;47216;42.656;23.232;2023-02-18T10:05:55;94492.97;;;12.52;32.71
61345;BME280;47216;42.656;23.232;2023-02-18T10:08:24;94490.44;;;12.63;32.61
61345;BME280;47216;42.656;23.232;2023-02-18T10:10:52;94478.53;;;12.72;32.72
61345;BME280;47216;42.656;23.232;2023-02-18T10:13:22;94477.09;;;12.86;31.92
61345;BME280;47216;42.656;23.232;2023-02-18T10:15:50;94480.31;;;12.93;31.95
61345;BME280;47216;42.656;23.232;2023-02-18T10:18:21;94480.91;;;13.00;32.39
61345;BME280;47216;42.656;23.232;2023-02-18T10:20:52;94475.75;;;13.06;31.86
61345;BME280;47216;42.656;23.232;2023-02-18T10:23:24;94492.84;;;13.13;31.99
61345;BME280;47216;42.656;23.232;2023-02-18T10:25:52;94485.81;;;13.19;31.63
61345;BME280;47216;42.656;23.232;2023-02-18T10:28:23;94488.00;;;13.27;31.74
61345;BME280;47216;42.656;23.232;2023-02-18T10:30:53;94476.06;;;13.36;31.32
61345;BME280;47216;42.656;23.232;2023-02-18T10:33:31;94476.94;;;13.47;30.74
61345;BME280;47216;42.656;23.232;2023-02-18T10:36:23;94483.03;;;13.58;31.25
61345;BME280;47216;42.656;23.232;2023-02-18T10:41:51;94477.38;;;13.71;31.02
61345;BME280;47216;42.656;23.232;2023-02-18T10:44:25;94471.63;;;13.74;32.03
61345;BME280;47216;42.656;23.232;2023-02-18T10:46:59;94469.91;;;13.90;30.96
61345;BME280;47216;42.656;23.232;2023-02-18T10:49:43;94453.19;;;14.01;30.52
61345;BME280;47216;42.656;23.232;2023-02-18T10:52:16;94450.06;;;14.04;30.44
61345;BME280;47216;42.656;23.232;2023-02-18T10:54:51;94450.34;;;14.08;30.48
61345;BME280;47216;42.656;23.232;2023-02-18T10:57:20;94433.63;;;14.19;30.61
61345;BME280;47216;42.656;23.232;2023-02-18T10:59:57;94436.81;;;14.26;30.81
61345;BME280;47216;42.656;23.232;2023-02-18T11:02:27;94452.31;;;14.28;30.75
61345;BME280;47216;42.656;23.232;2023-02-18T11:04:57;94444.94;;;14.25;30.13
61345;BME280;47216;42.656;23.232;2023-02-18T11:07:30;94449.84;;;14.11;30.58
61345;BME280;47216;42.656;23.232;2023-02-18T11:10:06;94447.72;;;14.08;31.33
61345;BME280;47216;42.656;23.232;2023-02-18T11:12:41;94433.63;;;14.14;31.43
61345;BME280;47216;42.656;23.232;2023-02-18T11:15:18;94431.00;;;14.19;30.78
61345;BME280;47216;42.656;23.232;2023-02-18T11:17:49;94428.66;;;14.23;30.81
61345;BME280;47216;42.656;23.232;2023-02-18T11:20:36;94425.25;;;14.22;30.67
61345;BME280;47216;42.656;23.232;2023-02-18T11:23:18;94424.16;;;14.18;30.96
61345;BME280;47216;42.656;23.232;2023-02-18T11:25:54;94414.19;;;14.15;31.33
61345;BME280;47216;42.656;23.232;2023-02-18T11:28:29;94416.84;;;14.20;31.26
61345;BME280;47216;42.656;23.232;2023-02-18T11:31:00;94405.34;;;14.26;31.59
61345;BME280;47216;42.656;23.232;2023-02-18T11:33:31;94389.59;;;14.32;30.85
61345;BME280;47216;42.656;23.232;2023-02-18T11:36:02;94373.94;;;14.47;31.16
61345;BME280;47216;42.656;23.232;2023-02-18T11:38:33;94373.97;;;14.57;31.04
61345;BME280;47216;42.656;23.232;2023-02-18T11:41:02;94365.59;;;14.65;31.14
61345;BME280;47216;42.656;23.232;2023-02-18T11:43:34;94348.25;;;14.64;31.08
61345;BME280;47216;42.656;23.232;2023-02-18T11:46:10;94352.50;;;14.76;31.39
61345;BME280;47216;42.656;23.232;2023-02-18T11:48:39;94351.44;;;14.87;30.93
61345;BME280;47216;42.656;23.232;2023-02-18T11:51:14;94370.13;;;14.90;31.26
61345;BME280;47216;42.656;23.232;2023-02-18T11:53:52;94348.03;;;14.91;30.91
61345;BME280;47216;42.656;23.232;2023-02-18T11:56:20;94344.38;;;14.82;31.21
61345;BME280;47216;42.656;23.232;2023-02-18T11:58:52;94344.13;;;15.09;31.82
61345;BME280;47216;42.656;23.232;2023-02-18T12:01:25;94353.84;;;15.14;31.13
61345;BME280;47216;42.656;23.232;2023-02-18T12:03:56;94332.03;;;15.08;30.91
61345;BME280;47216;42.656;23.232;2023-02-18T12:06:27;94330.22;;;15.09;31.38
61345;BME280;47216;42.656;23.232;2023-02-18T12:08:56;94323.34;;;15.13;31.42
61345;BME280;47216;42.656;23.232;2023-02-18T12:11:27;94335.72;;;15.07;30.94
61345;BME280;47216;42.656;23.232;2023-02-18T12:13:56;94325.22;;;15.02;31.45
61345;BME280;47216;42.656;23.232;2023-02-18T12:16:31;94334.13;;;15.06;31.64
61345;BME280;47216;42.656;23.232;2023-02-18T12:19:08;94329.41;;;15.03;31.40
61345;BME280;47216;42.656;23.232;2023-02-18T12:21:43;94310.75;;;15.05;31.21
61345;BME280;47216;42.656;23.232;2023-02-18T12:24:21;94325.19;;;15.12;31.49
61345;BME280;47216;42.656;23.232;2023-02-18T12:26:56;94317.84;;;15.30;31.63
61345;BME280;47216;42.656;23.232;2023-02-18T12:29:40;94342.53;;;15.24;31.93
61345;BME280;47216;42.656;23.232;2023-02-18T12:32:18;94344.13;;;15.30;31.33
61345;BME280;47216;42.656;23.232;2023-02-18T12:34:54;94318.88;;;15.24;31.82
61345;BME280;47216;42.656;23.232;2023-02-18T12:37:33;94319.94;;;15.18;31.41
61345;BME280;47216;42.656;23.232;2023-02-18T12:40:13;94326.78;;;15.13;31.67
61345;BME280;47216;42.656;23.232;2023-02-18T12:42:52;94318.34;;;15.06;31.86
61345;BME280;47216;42.656;23.232;2023-02-18T12:45:29;94301.56;;;15.02;32.20
61345;BME280;47216;42.656;23.232;2023-02-18T12:48:13;94299.47;;;15.04;31.94
61345;BME280;47216;42.656;23.232;2023-02-18T12:50:49;94287.91;;;15.10;31.86
61345;BME280;47216;42.656;23.232;2023-02-18T12:53:29;94301.31;;;15.09;32.11
61345;BME280;47216;42.656;23.232;2023-02-18T12:56:04;94289.75;;;15.10;32.28
61345;BME280;47216;42.656;23.232;2023-02-18T12:58:38;94293.16;;;15.10;32.08
61345;BME280;47216;42.656;23.232;2023-02-18T13:01:20;94287.91;;;15.10;32.52
61345;BME280;47216;42.656;23.232;2023-02-18T13:09:30;94307.84;;;15.32;32.67
61345;BME280;47216;42.656;23.232;2023-02-18T13:12:03;94301.53;;;15.33;32.67
61345;BME280;47216;42.656;23.232;2023-02-18T13:14:35;94293.66;;;15.33;32.66
61345;BME280;47216;42.656;23.232;2023-02-18T13:17:09;94301.00;;;15.31;32.89
61345;BME280;47216;42.656;23.232;2023-02-18T13:19:40;94291.56;;;15.30;32.94
61345;BME280;47216;42.656;23.232;2023-02-18T13:22:11;94287.34;;;15.29;33.05
61345;BME280;47216;42.656;23.232;2023-02-18T13:24:44;94291.56;;;15.30;33.16
61345;BME280;47216;42.656;23.232;2023-02-18T13:27:14;94296.81;;;15.30;32.84
61345;BME280;47216;42.656;23.232;2023-02-18T13:29:47;94291.56;;;15.20;33.28
61345;BME280;47216;42.656;23.232;2023-02-18T13:32:20;94285.25;;;15.26;33.20
61345;BME280;47216;42.656;23.232;2023-02-18T13:34:52;94291.06;;;15.12;32.80